📊 Raw Sensor Data

Showing records 41851 to 41875 of 84,989 total

ID Distance (ft) Battery V Battery A Int Temp (°F) Int Humid (%) Ext Temp (°F) Solar V RSSI SNR Time Stamp
43151 15.2 4.03 -5 53 45 54 0.00 -69 8 06/11/2025 12:00 AM
43150 15.2 3.97 -5 53 45 54 0.00 -69 8 06/10/2025 11:45 PM
43149 15.2 3.97 -5 53 46 54 0.00 -68 8 06/10/2025 11:30 PM
43148 15.2 4.03 -5 54 46 55 0.00 -68 8 06/10/2025 11:15 PM
43147 15.2 3.98 -5 55 47 55 0.00 -68 8 06/10/2025 10:45 PM
43146 15.2 4.03 -5 56 47 56 0.00 -73 8 06/10/2025 10:30 PM
43145 15.2 3.98 -5 56 48 57 0.00 -70 7 06/10/2025 10:15 PM
43144 15.2 3.98 -5 57 48 57 0.00 -72 7 06/10/2025 10:00 PM
43143 15.4 3.98 -5 58 49 58 0.00 -71 7 06/10/2025 09:45 PM
43142 15.4 3.98 -5 59 50 59 0.00 -70 8 06/10/2025 09:30 PM
43141 15.5 3.98 -5 60 51 60 0.00 -71 7 06/10/2025 09:15 PM
43140 15.4 3.98 -5 61 52 61 0.00 -71 8 06/10/2025 09:00 PM
43139 15.4 3.98 -5 63 54 61 0.40 -71 8 06/10/2025 08:45 PM
43138 15.4 3.98 -10 65 55 63 3.30 -72 8 06/10/2025 08:30 PM
43137 15.5 3.99 0 70 55 65 4.60 -71 8 06/10/2025 08:15 PM
43136 15.5 4.06 0 74 54 68 4.50 -71 7 06/10/2025 08:00 PM
43135 15.6 4.07 7 77 54 70 4.50 -72 7 06/10/2025 07:45 PM
43134 15.6 4.07 0 80 53 74 4.50 -71 7 06/10/2025 07:30 PM
43133 15.6 4.04 19 83 53 73 4.60 -75 8 06/10/2025 07:15 PM
43132 15.6 4.11 9 87 51 77 4.50 -72 8 06/10/2025 07:00 PM
43131 15.6 4.08 45 89 51 80 4.50 -71 7 06/10/2025 06:45 PM
43130 15.7 4.03 0 89 51 81 5.10 -69 8 06/10/2025 06:30 PM
43129 15.7 4.03 0 90 51 81 5.10 -72 7 06/10/2025 06:15 PM
43128 15.7 4.03 0 92 50 83 5.10 -70 8 06/10/2025 06:00 PM
43127 15.7 4.03 0 93 49 84 5.10 -73 7 06/10/2025 05:45 PM